createdAt,value
2022-10-28T00:00:14.551Z,15.43
2022-10-28T00:02:41.283Z,15.40
2022-10-28T00:05:08.212Z,15.39
2022-10-28T00:07:34.834Z,15.37
2022-10-28T00:10:01.431Z,15.35
2022-10-28T00:12:27.951Z,15.34
2022-10-28T00:14:54.523Z,15.32
2022-10-28T00:17:21.291Z,15.31
2022-10-28T00:19:48.041Z,15.29
2022-10-28T00:22:15.771Z,15.28
2022-10-28T00:24:42.255Z,15.27
2022-10-28T00:27:08.711Z,15.26
2022-10-28T00:29:38.084Z,15.25
2022-10-28T00:32:04.792Z,15.22
2022-10-28T00:34:31.285Z,15.20
2022-10-28T00:36:57.867Z,15.20
2022-10-28T00:39:25.838Z,15.17
2022-10-28T00:41:56.470Z,15.16
2022-10-28T00:44:46.566Z,15.16
2022-10-28T00:47:31.531Z,15.13
2022-10-28T00:50:09.914Z,15.14
2022-10-28T00:52:37.205Z,15.12
2022-10-28T00:55:04.157Z,15.11
2022-10-28T00:57:36.599Z,15.10
2022-10-28T01:00:06.476Z,15.09
2022-10-28T01:02:44.800Z,15.08
2022-10-28T01:05:14.490Z,15.06
2022-10-28T01:07:42.216Z,15.05
2022-10-28T01:10:09.656Z,15.05
2022-10-28T01:12:53.434Z,15.04
2022-10-28T01:15:33.934Z,15.03
2022-10-28T01:18:12.487Z,15.02
2022-10-28T01:20:51.215Z,15.00
2022-10-28T01:23:32.282Z,15.00
2022-10-28T01:26:44.270Z,14.98
2022-10-28T01:29:48.192Z,14.96
2022-10-28T01:32:34.135Z,14.96
2022-10-28T01:35:25.683Z,14.95
2022-10-28T01:38:15.904Z,14.95
2022-10-28T01:40:50.863Z,14.93
2022-10-28T01:43:25.387Z,14.93
2022-10-28T01:45:54.622Z,14.93
2022-10-28T01:48:29.551Z,14.92
2022-10-28T01:51:10.623Z,14.89
2022-10-28T01:53:41.801Z,14.89
2022-10-28T01:56:14.011Z,14.87
2022-10-28T01:58:41.583Z,14.85
2022-10-28T02:01:10.385Z,14.84
2022-10-28T02:03:37.641Z,14.83
2022-10-28T02:06:15.642Z,14.81
2022-10-28T02:08:42.053Z,14.80
2022-10-28T02:11:46.490Z,14.80
2022-10-28T02:14:38.325Z,14.79
2022-10-28T02:17:21.173Z,14.77
2022-10-28T02:20:12.478Z,14.76
2022-10-28T02:23:00.796Z,14.75
2022-10-28T02:25:41.224Z,14.73
2022-10-28T02:30:52.659Z,14.71
2022-10-28T02:33:23.940Z,14.69
2022-10-28T02:35:55.857Z,14.68
2022-10-28T02:38:30.356Z,14.68
2022-10-28T02:41:01.860Z,14.67
2022-10-28T02:43:30.455Z,14.66
2022-10-28T02:46:00.764Z,14.64
2022-10-28T02:48:47.607Z,14.62
2022-10-28T02:51:21.687Z,14.63
2022-10-28T02:54:02.218Z,14.61
2022-10-28T02:56:31.848Z,14.58
2022-10-28T02:58:58.427Z,14.58
2022-10-28T03:01:25.190Z,14.55
2022-10-28T03:03:52.015Z,14.55
2022-10-28T03:06:18.798Z,14.53
2022-10-28T03:08:45.961Z,14.52
2022-10-28T03:11:13.048Z,14.51
2022-10-28T03:13:39.541Z,14.49
2022-10-28T03:16:06.070Z,14.48
2022-10-28T03:18:32.526Z,14.46
2022-10-28T03:20:59.290Z,14.43
2022-10-28T03:23:26.033Z,14.44
2022-10-28T03:25:52.597Z,14.42
2022-10-28T03:28:19.246Z,14.42
2022-10-28T03:30:45.951Z,14.41
2022-10-28T03:33:12.692Z,14.39
2022-10-28T03:35:40.445Z,14.38
2022-10-28T03:38:06.989Z,14.36
2022-10-28T03:40:34.616Z,14.32
2022-10-28T03:43:01.214Z,14.28
2022-10-28T03:47:59.434Z,14.26
2022-10-28T03:50:26.392Z,14.24
2022-10-28T03:52:52.905Z,14.21
2022-10-28T03:55:19.514Z,14.20
2022-10-28T03:57:46.033Z,14.18
2022-10-28T04:00:16.204Z,14.18
2022-10-28T04:02:42.782Z,14.20
2022-10-28T04:05:09.531Z,14.17
2022-10-28T04:07:36.184Z,14.17
2022-10-28T04:10:02.690Z,14.17
2022-10-28T04:12:29.352Z,14.17
2022-10-28T04:14:56.034Z,14.15
2022-10-28T04:17:22.735Z,14.14
2022-10-28T04:19:49.671Z,14.12
2022-10-28T04:22:16.329Z,14.12
2022-10-28T04:24:42.879Z,14.11
2022-10-28T04:27:09.394Z,14.09
2022-10-28T04:29:36.188Z,14.08
2022-10-28T04:32:02.843Z,14.07
2022-10-28T04:34:29.704Z,14.06
2022-10-28T04:36:56.172Z,14.05
2022-10-28T04:39:23.454Z,14.05
2022-10-28T04:41:50.201Z,14.05
2022-10-28T04:44:16.747Z,14.05
2022-10-28T04:46:44.330Z,14.03
2022-10-28T04:49:11.303Z,14.04
2022-10-28T04:51:37.848Z,14.03
2022-10-28T04:54:04.524Z,14.05
2022-10-28T04:56:33.404Z,14.05
2022-10-28T04:59:00.125Z,14.04
2022-10-28T05:25:44.000Z,14.01
2022-10-28T05:28:10.485Z,14.01
2022-10-28T05:30:38.077Z,14.00
2022-10-28T05:33:04.892Z,13.99
2022-10-28T05:35:31.554Z,13.99
2022-10-28T05:37:58.534Z,14.00
2022-10-28T05:40:25.195Z,14.01
2022-10-28T05:42:54.616Z,13.99
2022-10-28T05:45:21.469Z,14.00
2022-10-28T05:47:48.679Z,13.99
2022-10-28T05:50:18.913Z,13.98
2022-10-28T05:52:50.880Z,13.98
2022-10-28T05:55:22.198Z,13.97
2022-10-28T05:57:50.219Z,13.99
2022-10-28T06:00:19.427Z,13.97
2022-10-28T06:02:46.133Z,13.96
2022-10-28T06:05:13.372Z,13.97
2022-10-28T06:07:41.397Z,13.96
2022-10-28T06:10:10.312Z,13.95
2022-10-28T06:12:36.088Z,13.95
2022-10-28T06:15:03.288Z,13.94
2022-10-28T06:17:29.957Z,13.94
2022-10-28T06:19:56.441Z,13.93
2022-10-28T06:22:23.123Z,13.92
2022-10-28T06:24:49.839Z,13.93
2022-10-28T06:27:16.431Z,13.92
2022-10-28T06:29:43.140Z,13.91
2022-10-28T06:32:09.875Z,13.90
2022-10-28T06:34:37.876Z,13.92
2022-10-28T06:37:05.751Z,13.94
2022-10-28T06:39:36.717Z,14.01
2022-10-28T06:42:03.397Z,14.08
2022-10-28T06:44:30.030Z,14.15
2022-10-28T06:46:58.064Z,14.22
2022-10-28T06:49:24.591Z,14.30
2022-10-28T06:51:51.206Z,14.37
2022-10-28T06:54:18.076Z,14.45
2022-10-28T06:56:47.776Z,14.52
2022-10-28T06:59:14.496Z,14.61
2022-10-28T07:01:41.379Z,14.69
2022-10-28T07:04:11.976Z,14.76
2022-10-28T07:06:39.306Z,14.84
2022-10-28T07:09:08.762Z,14.91
2022-10-28T07:11:35.322Z,14.97
2022-10-28T07:18:52.367Z,15.14
2022-10-28T07:21:21.719Z,15.21
2022-10-28T07:23:48.337Z,15.27
2022-10-28T07:26:14.794Z,15.31
2022-10-28T07:28:43.006Z,15.37
2022-10-28T07:31:12.546Z,15.43
2022-10-28T07:33:39.139Z,15.49
2022-10-28T07:36:06.701Z,15.53
2022-10-28T07:38:34.342Z,15.61
2022-10-28T07:41:08.780Z,15.65
2022-10-28T07:43:39.461Z,15.69
2022-10-28T07:46:08.057Z,15.74
2022-10-28T07:48:36.877Z,15.79
2022-10-28T07:51:06.022Z,15.84
2022-10-28T07:53:33.377Z,15.91
2022-10-28T07:56:04.741Z,15.98
2022-10-28T07:58:31.532Z,16.04
2022-10-28T08:01:03.344Z,16.09
2022-10-28T08:03:38.052Z,16.17
2022-10-28T08:06:09.139Z,16.25
2022-10-28T08:08:36.368Z,16.33
2022-10-28T08:11:23.948Z,16.37
2022-10-28T08:13:51.943Z,16.45
2022-10-28T08:16:19.407Z,16.52
2022-10-28T08:18:46.485Z,16.61
2022-10-28T08:21:14.625Z,16.68
2022-10-28T08:23:41.708Z,16.71
2022-10-28T08:26:08.706Z,16.76
2022-10-28T08:28:35.575Z,16.82
2022-10-28T08:31:08.530Z,16.91
2022-10-28T08:34:30.809Z,17.01
2022-10-28T08:36:57.936Z,17.09
2022-10-28T08:39:26.180Z,17.19
2022-10-28T08:42:08.288Z,17.26
2022-10-28T08:45:30.678Z,17.39
2022-10-28T08:48:33.075Z,17.47
2022-10-28T08:51:13.279Z,17.58
2022-10-28T08:53:54.421Z,17.64
2022-10-28T08:56:37.870Z,17.73
2022-10-28T08:59:13.528Z,17.71
2022-10-28T09:01:51.170Z,17.75
2022-10-28T09:04:41.041Z,17.88
2022-10-28T09:07:26.253Z,17.96
2022-10-28T09:09:54.595Z,17.97
2022-10-28T09:12:51.138Z,17.99
2022-10-28T09:15:31.495Z,18.10
2022-10-28T09:18:12.361Z,18.22
2022-10-28T09:20:57.145Z,18.27
2022-10-28T09:23:32.119Z,18.32
2022-10-28T09:26:49.634Z,18.40
2022-10-28T09:29:44.241Z,18.47
2022-10-28T09:32:45.983Z,18.51
2022-10-28T09:35:18.872Z,18.57
2022-10-28T09:37:58.752Z,18.69
2022-10-28T09:40:29.916Z,18.74
2022-10-28T09:43:07.496Z,18.82
2022-10-28T09:45:38.890Z,18.84
2022-10-28T09:48:20.757Z,18.88
2022-10-28T09:50:52.905Z,18.85
2022-10-28T09:53:52.043Z,18.85
2022-10-28T09:56:18.851Z,18.93
2022-10-28T09:58:47.431Z,18.92
2022-10-28T10:01:24.794Z,18.98
2022-10-28T10:03:52.374Z,19.01
2022-10-28T10:06:27.024Z,19.01
2022-10-28T10:08:59.783Z,19.05
2022-10-28T10:11:29.876Z,19.13
2022-10-28T10:13:58.880Z,19.16
2022-10-28T10:16:35.237Z,19.18
2022-10-28T10:19:10.453Z,19.24
2022-10-28T10:21:49.804Z,19.27
2022-10-28T10:24:33.998Z,19.30
2022-10-28T10:27:33.014Z,19.38
2022-10-28T10:30:00.171Z,19.45
2022-10-28T10:32:33.578Z,19.52
2022-10-28T10:35:10.292Z,19.60
2022-10-28T10:37:42.978Z,19.61
2022-10-28T10:40:21.714Z,19.71
2022-10-28T10:43:09.769Z,19.71
2022-10-28T10:45:35.751Z,19.78
2022-10-28T10:48:11.733Z,19.86
2022-10-28T10:50:41.326Z,19.89
2022-10-28T10:53:19.442Z,19.94
2022-10-28T10:55:51.770Z,19.97
2022-10-28T10:58:24.756Z,20.05
2022-10-28T11:00:54.186Z,20.13
2022-10-28T11:03:51.407Z,20.17
2022-10-28T11:06:24.793Z,20.24
2022-10-28T11:08:59.473Z,20.28
2022-10-28T11:11:36.163Z,20.28
2022-10-28T11:14:16.912Z,20.30
2022-10-28T11:16:53.228Z,20.40
2022-10-28T11:19:30.040Z,20.46
2022-10-28T11:22:05.410Z,20.47
2022-10-28T11:25:05.291Z,20.51
2022-10-28T11:27:37.731Z,20.50
2022-10-28T11:30:11.173Z,20.61
2022-10-28T11:33:29.499Z,20.60
2022-10-28T11:36:22.890Z,20.58
2022-10-28T11:38:58.251Z,20.70
2022-10-28T11:41:42.815Z,20.72
2022-10-28T11:44:26.468Z,20.75
2022-10-28T11:47:04.051Z,20.79
2022-10-28T11:50:08.612Z,20.87
2022-10-28T11:53:28.152Z,20.88
2022-10-28T11:56:18.184Z,20.93
2022-10-28T11:59:03.002Z,20.94
2022-10-28T12:01:51.146Z,21.01
2022-10-28T12:04:46.132Z,21.08
2022-10-28T12:07:54.944Z,21.12
2022-10-28T12:11:14.035Z,21.19
2022-10-28T12:14:13.643Z,21.20
2022-10-28T12:17:13.372Z,21.25
2022-10-28T12:19:48.212Z,21.28
2022-10-28T12:22:48.982Z,21.33
2022-10-28T12:25:23.936Z,21.37
2022-10-28T12:27:56.722Z,21.39
2022-10-28T12:30:29.314Z,21.40
2022-10-28T12:33:11.548Z,21.42
2022-10-28T12:35:46.152Z,21.48
2022-10-28T12:38:20.366Z,21.50
2022-10-28T12:40:56.157Z,21.56
2022-10-28T12:43:30.099Z,21.57
2022-10-28T12:45:57.798Z,21.57
2022-10-28T12:48:34.014Z,21.53
2022-10-28T12:51:24.791Z,21.49
2022-10-28T12:54:00.743Z,21.47
2022-10-28T12:56:37.677Z,21.48
2022-10-28T12:59:15.831Z,21.51
2022-10-28T13:01:46.437Z,21.44
2022-10-28T13:04:13.764Z,21.44
2022-10-28T13:07:13.491Z,21.49
2022-10-28T13:10:04.908Z,21.48
2022-10-28T13:13:01.835Z,21.45
2022-10-28T13:15:41.124Z,21.44
2022-10-28T13:18:28.079Z,21.50
2022-10-28T13:21:51.373Z,21.46
2022-10-28T13:24:47.847Z,21.43
2022-10-28T13:27:15.657Z,21.42
2022-10-28T13:29:43.930Z,21.43
2022-10-28T13:32:38.273Z,21.47
2022-10-28T13:35:16.359Z,21.44
2022-10-28T13:37:47.084Z,21.41
2022-10-28T13:40:42.770Z,21.42
2022-10-28T13:43:20.462Z,21.45
2022-10-28T13:45:56.252Z,21.38
2022-10-28T13:47:49.058Z,18.69
2022-10-28T13:48:48.194Z,21.39
2022-10-28T13:50:32.126Z,18.83
2022-10-28T13:51:45.030Z,21.45
2022-10-28T13:53:57.516Z,18.98
2022-10-28T13:54:26.133Z,21.44
2022-10-28T13:56:53.267Z,21.42
2022-10-28T13:56:55.323Z,19.10
2022-10-28T13:59:29.541Z,21.39
2022-10-28T14:02:33.879Z,21.40
2022-10-28T14:05:05.912Z,21.36
2022-10-28T14:07:35.861Z,21.35
2022-10-28T14:10:22.761Z,21.35
2022-10-28T14:12:59.000Z,21.41
2022-10-28T14:15:32.603Z,21.32
2022-10-28T14:18:10.349Z,21.33
2022-10-28T14:20:49.430Z,21.30
2022-10-28T14:23:27.258Z,21.34
2022-10-28T14:25:54.851Z,21.28
2022-10-28T14:28:51.075Z,21.27
2022-10-28T14:31:32.880Z,21.26
2022-10-28T14:33:59.401Z,21.34
2022-10-28T14:36:52.770Z,21.31
2022-10-28T14:39:44.106Z,21.31
2022-10-28T14:45:33.089Z,21.27
2022-10-28T14:48:31.586Z,21.24
2022-10-28T14:51:02.157Z,21.21
2022-10-28T14:53:36.137Z,21.21
2022-10-28T14:56:18.637Z,21.21
2022-10-28T14:58:45.915Z,21.18
2022-10-28T15:01:24.089Z,21.16
2022-10-28T15:03:58.330Z,21.16
2022-10-28T15:06:26.070Z,21.10
2022-10-28T15:08:54.484Z,21.11
2022-10-28T15:11:22.189Z,21.09
2022-10-28T15:13:52.891Z,21.08
2022-10-28T15:16:25.634Z,21.05
2022-10-28T15:18:54.390Z,21.05
2022-10-28T15:21:22.698Z,21.04
2022-10-28T15:24:00.713Z,21.03
2022-10-28T15:26:30.526Z,21.00
2022-10-28T15:28:57.343Z,21.00
2022-10-28T15:31:24.104Z,20.96
2022-10-28T15:33:50.733Z,20.96
2022-10-28T15:36:24.804Z,20.92
2022-10-28T15:39:18.897Z,20.89
2022-10-28T15:41:49.590Z,20.89
2022-10-28T15:44:45.784Z,20.85
2022-10-28T15:47:28.879Z,20.80
2022-10-28T15:50:20.572Z,20.79
2022-10-28T15:52:53.641Z,20.75
2022-10-28T15:55:35.615Z,20.74
2022-10-28T15:58:31.267Z,20.75
2022-10-28T16:00:58.812Z,20.71
2022-10-28T16:03:40.692Z,20.68
2022-10-28T16:06:28.171Z,20.63
2022-10-28T16:09:18.953Z,20.64
2022-10-28T16:11:50.304Z,20.62
2022-10-28T16:14:42.119Z,20.58
2022-10-28T16:17:18.391Z,20.57
2022-10-28T16:19:53.482Z,20.55
2022-10-28T16:22:22.395Z,20.53
2022-10-28T16:24:50.933Z,20.50
2022-10-28T16:27:28.861Z,20.47
2022-10-28T16:29:55.647Z,20.41
2022-10-28T16:32:28.749Z,20.39
2022-10-28T16:35:01.616Z,20.41
2022-10-28T16:37:30.681Z,20.41
2022-10-28T16:40:00.599Z,20.42
2022-10-28T16:42:27.691Z,20.43
2022-10-28T16:44:54.235Z,20.43
2022-10-28T16:47:23.050Z,20.43
2022-10-28T16:49:54.109Z,20.42
2022-10-28T16:52:26.846Z,20.42
2022-10-28T16:54:53.535Z,20.37
2022-10-28T16:57:21.429Z,20.36
2022-10-28T16:59:48.451Z,20.36
2022-10-28T17:02:33.773Z,20.36
2022-10-28T17:05:00.932Z,20.37
2022-10-28T17:07:28.719Z,20.37
2022-10-28T17:09:55.687Z,20.35
2022-10-28T17:12:24.596Z,20.33
2022-10-28T17:14:52.063Z,20.33
2022-10-28T17:17:18.961Z,20.29
2022-10-28T17:19:46.560Z,20.23
2022-10-28T17:22:13.975Z,20.20
2022-10-28T17:24:41.798Z,20.16
2022-10-28T17:27:08.516Z,20.11
2022-10-28T17:29:37.864Z,20.10
2022-10-28T17:32:06.918Z,20.09
2022-10-28T17:34:33.462Z,20.04
2022-10-28T17:37:02.226Z,19.99
2022-10-28T17:39:29.071Z,19.97
2022-10-28T17:41:55.530Z,19.94
2022-10-28T17:44:22.267Z,19.95
2022-10-28T17:46:52.119Z,19.94
2022-10-28T17:49:19.305Z,19.93
2022-10-28T17:51:46.043Z,19.94
2022-10-28T17:54:12.718Z,19.90
2022-10-28T17:56:42.143Z,19.90
2022-10-28T17:59:09.307Z,19.89
2022-10-28T18:01:36.544Z,19.85
2022-10-28T18:04:23.770Z,19.81
2022-10-28T18:06:50.379Z,19.75
2022-10-28T18:09:17.108Z,19.73
2022-10-28T18:11:43.575Z,19.72
2022-10-28T18:14:10.337Z,19.67
2022-10-28T18:16:37.419Z,19.61
2022-10-28T18:19:06.045Z,19.60
2022-10-28T18:21:35.325Z,19.58
2022-10-28T18:24:04.965Z,19.56
2022-10-28T18:26:36.434Z,19.52
2022-10-28T18:29:07.278Z,19.48
2022-10-28T18:31:34.673Z,19.42
2022-10-28T18:34:02.287Z,19.33
2022-10-28T18:36:34.554Z,19.27
2022-10-28T18:39:03.305Z,19.20
2022-10-28T18:41:31.861Z,19.17
2022-10-28T18:44:00.474Z,19.14
2022-10-28T18:46:28.811Z,19.19
2022-10-28T18:48:57.040Z,19.19
2022-10-28T18:51:24.073Z,19.20
2022-10-28T18:53:52.022Z,19.16
2022-10-28T18:56:21.344Z,19.10
2022-10-28T18:58:51.380Z,19.13
2022-10-28T19:01:21.459Z,19.15
2022-10-28T19:03:52.935Z,19.13
2022-10-28T19:06:20.465Z,19.06
2022-10-28T19:08:53.024Z,19.01
2022-10-28T19:11:20.523Z,19.00
2022-10-28T19:13:47.910Z,19.01
2022-10-28T19:16:14.943Z,18.96
2022-10-28T19:18:42.292Z,18.90
2022-10-28T19:21:13.041Z,18.86
2022-10-28T19:23:40.736Z,18.89
2022-10-28T19:26:11.317Z,18.88
2022-10-28T19:28:39.523Z,18.84
2022-10-28T19:31:09.872Z,18.78
2022-10-28T19:33:38.425Z,18.77
2022-10-28T19:36:14.467Z,18.75
2022-10-28T19:38:41.283Z,18.72
2022-10-28T19:41:13.730Z,18.67
2022-10-28T19:43:41.419Z,18.60
2022-10-28T19:46:13.481Z,18.50
2022-10-28T19:48:42.044Z,18.48
2022-10-28T19:51:11.953Z,18.41
2022-10-28T19:53:38.676Z,18.42
2022-10-28T19:56:06.161Z,18.44
2022-10-28T19:58:33.015Z,18.40
2022-10-28T20:01:05.402Z,18.37
2022-10-28T20:03:34.587Z,18.35
2022-10-28T20:06:11.261Z,18.29
2022-10-28T20:08:46.386Z,18.26
2022-10-28T20:11:24.833Z,18.16
2022-10-28T20:13:56.887Z,18.10
2022-10-28T20:16:25.093Z,18.00
2022-10-28T20:18:51.780Z,17.92
2022-10-28T20:21:22.322Z,17.80
2022-10-28T20:26:18.287Z,17.62
2022-10-28T20:28:45.065Z,17.55
2022-10-28T20:31:16.281Z,17.46
2022-10-28T20:33:44.855Z,17.37
2022-10-28T20:36:32.326Z,17.27
2022-10-28T20:39:02.940Z,17.15
2022-10-28T20:41:34.496Z,17.03
2022-10-28T20:44:02.679Z,16.96
2022-10-28T20:46:29.743Z,16.87
2022-10-28T20:48:57.769Z,16.79
2022-10-28T20:51:26.151Z,16.77
2022-10-28T20:53:55.253Z,16.74
2022-10-28T20:56:36.463Z,16.70
2022-10-28T20:59:04.516Z,16.62
2022-10-28T21:01:35.560Z,16.58
2022-10-28T21:04:04.862Z,16.49
2022-10-28T21:06:31.827Z,16.40
2022-10-28T21:08:59.011Z,16.36
2022-10-28T21:11:26.902Z,16.34
2022-10-28T21:13:56.557Z,16.33
2022-10-28T21:16:23.844Z,16.29
2022-10-28T21:18:50.843Z,16.25
2022-10-28T21:21:18.519Z,16.18
2022-10-28T21:23:45.524Z,16.15
2022-10-28T21:26:13.265Z,16.11
2022-10-28T21:28:46.215Z,16.04
2022-10-28T21:52:33.737Z,15.52
2022-10-28T21:55:05.976Z,15.48
2022-10-28T21:57:41.621Z,15.42
2022-10-28T22:00:08.917Z,15.40
2022-10-28T22:02:35.579Z,15.35
2022-10-28T22:05:02.096Z,15.31
2022-10-28T22:07:28.701Z,15.27
2022-10-28T22:09:57.351Z,15.23
2022-10-28T22:12:24.284Z,15.20
2022-10-28T22:14:51.021Z,15.18
2022-10-28T22:17:17.736Z,15.15
2022-10-28T22:19:45.665Z,15.12
2022-10-28T22:22:13.669Z,15.06
2022-10-28T22:24:40.267Z,15.02
2022-10-28T22:27:06.729Z,14.97
2022-10-28T22:29:33.381Z,14.97
2022-10-28T22:32:00.042Z,14.95
2022-10-28T22:34:26.519Z,14.90
2022-10-28T22:36:53.149Z,14.90
2022-10-28T22:39:19.789Z,14.90
2022-10-28T22:41:46.295Z,14.90
2022-10-28T22:44:12.913Z,14.87
2022-10-28T22:46:40.751Z,14.84
2022-10-28T22:49:07.371Z,14.85
2022-10-28T22:51:34.057Z,14.83
2022-10-28T22:54:00.651Z,14.78
2022-10-28T22:56:27.794Z,14.77
2022-10-28T22:59:01.802Z,14.72
2022-10-28T23:01:29.771Z,14.69
2022-10-28T23:03:56.709Z,14.67
2022-10-28T23:06:26.171Z,14.64
2022-10-28T23:08:53.247Z,14.60
2022-10-28T23:11:20.903Z,14.59
2022-10-28T23:13:51.460Z,14.59
2022-10-28T23:16:18.270Z,14.56
2022-10-28T23:18:45.338Z,14.55
2022-10-28T23:21:20.929Z,14.51
2022-10-28T23:23:51.294Z,14.48
2022-10-28T23:26:21.133Z,14.49
2022-10-28T23:28:52.666Z,14.48
2022-10-28T23:31:19.620Z,14.45
2022-10-28T23:33:46.545Z,14.41
2022-10-28T23:36:14.907Z,14.40
2022-10-28T23:38:41.602Z,14.38
2022-10-28T23:41:10.743Z,14.35
